sensor_id;sensor_type;location;lat;lon;timestamp;temperature;humidity
80824;SHT35;70538;59.122;37.876;2023-08-30T00:02:22;14.15;77.43
80824;SHT35;70538;59.122;37.876;2023-08-30T00:04:50;14.12;77.51
80824;SHT35;70538;59.122;37.876;2023-08-30T00:07:18;14.09;77.63
80824;SHT35;70538;59.122;37.876;2023-08-30T00:09:46;14.04;77.77
80824;SHT35;70538;59.122;37.876;2023-08-30T00:12:14;14.04;77.82
80824;SHT35;70538;59.122;37.876;2023-08-30T00:14:42;14.02;77.80
80824;SHT35;70538;59.122;37.876;2023-08-30T00:17:09;13.99;77.77
80824;SHT35;70538;59.122;37.876;2023-08-30T00:19:37;13.98;77.80
80824;SHT35;70538;59.122;37.876;2023-08-30T00:22:04;13.98;77.82
80824;SHT35;70538;59.122;37.876;2023-08-30T00:24:35;13.99;77.75
80824;SHT35;70538;59.122;37.876;2023-08-30T00:27:03;14.02;77.65
80824;SHT35;70538;59.122;37.876;2023-08-30T00:29:33;14.04;77.63
80824;SHT35;70538;59.122;37.876;2023-08-30T00:32:01;14.02;77.61
80824;SHT35;70538;59.122;37.876;2023-08-30T00:34:29;14.02;77.59
80824;SHT35;70538;59.122;37.876;2023-08-30T00:36:57;14.02;77.60
80824;SHT35;70538;59.122;37.876;2023-08-30T00:39:25;14.02;77.73
80824;SHT35;70538;59.122;37.876;2023-08-30T00:41:52;14.02;77.82
80824;SHT35;70538;59.122;37.876;2023-08-30T00:44:20;14.02;77.90
80824;SHT35;70538;59.122;37.876;2023-08-30T00:46:50;14.01;77.90
80824;SHT35;70538;59.122;37.876;2023-08-30T00:49:17;14.01;77.89
80824;SHT35;70538;59.122;37.876;2023-08-30T00:51:45;14.01;78.02
80824;SHT35;70538;59.122;37.876;2023-08-30T00:54:13;13.97;78.16
80824;SHT35;70538;59.122;37.876;2023-08-30T00:56:40;13.97;78.17
80824;SHT35;70538;59.122;37.876;2023-08-30T00:59:08;13.98;78.26
80824;SHT35;70538;59.122;37.876;2023-08-30T01:01:37;13.97;78.41
80824;SHT35;70538;59.122;37.876;2023-08-30T01:04:06;13.94;78.56
80824;SHT35;70538;59.122;37.876;2023-08-30T01:06:34;13.91;78.71
80824;SHT35;70538;59.122;37.876;2023-08-30T01:09:04;13.89;78.91
80824;SHT35;70538;59.122;37.876;2023-08-30T01:11:40;13.89;79.18
80824;SHT35;70538;59.122;37.876;2023-08-30T01:14:18;13.86;79.36
80824;SHT35;70538;59.122;37.876;2023-08-30T01:16:48;13.83;79.46
80824;SHT35;70538;59.122;37.876;2023-08-30T01:22:16;13.99;79.57
80824;SHT35;70538;59.122;37.876;2023-08-30T01:27:23;14.08;79.25
80824;SHT35;70538;59.122;37.876;2023-08-30T01:29:54;14.08;79.20
80824;SHT35;70538;59.122;37.876;2023-08-30T01:32:22;14.10;79.24
80824;SHT35;70538;59.122;37.876;2023-08-30T01:34:53;14.13;79.20
80824;SHT35;70538;59.122;37.876;2023-08-30T01:37:21;14.19;79.05
80824;SHT35;70538;59.122;37.876;2023-08-30T01:39:50;14.16;78.91
80824;SHT35;70538;59.122;37.876;2023-08-30T01:42:18;14.19;78.66
80824;SHT35;70538;59.122;37.876;2023-08-30T01:44:54;14.16;78.61
80824;SHT35;70538;59.122;37.876;2023-08-30T01:47:27;14.17;78.65
80824;SHT35;70538;59.122;37.876;2023-08-30T01:49:56;14.17;78.57
80824;SHT35;70538;59.122;37.876;2023-08-30T01:52:25;14.17;78.64
80824;SHT35;70538;59.122;37.876;2023-08-30T01:54:54;14.22;78.79
80824;SHT35;70538;59.122;37.876;2023-08-30T01:57:21;14.20;78.91
80824;SHT35;70538;59.122;37.876;2023-08-30T01:59:49;14.25;79.10
80824;SHT35;70538;59.122;37.876;2023-08-30T02:02:17;14.26;79.41
80824;SHT35;70538;59.122;37.876;2023-08-30T02:04:45;14.29;79.49
80824;SHT35;70538;59.122;37.876;2023-08-30T02:10:02;14.33;79.06
80824;SHT35;70538;59.122;37.876;2023-08-30T02:12:40;14.34;78.92
80824;SHT35;70538;59.122;37.876;2023-08-30T02:15:10;14.30;78.84
80824;SHT35;70538;59.122;37.876;2023-08-30T02:17:40;14.29;78.85
80824;SHT35;70538;59.122;37.876;2023-08-30T02:20:08;14.26;79.07
80824;SHT35;70538;59.122;37.876;2023-08-30T02:22:35;14.20;79.32
80824;SHT35;70538;59.122;37.876;2023-08-30T02:25:03;14.23;79.45
80824;SHT35;70538;59.122;37.876;2023-08-30T02:27:32;14.23;79.46
80824;SHT35;70538;59.122;37.876;2023-08-30T02:30:01;14.25;79.43
80824;SHT35;70538;59.122;37.876;2023-08-30T02:32:46;14.23;79.24
80824;SHT35;70538;59.122;37.876;2023-08-30T02:35:14;14.23;79.33
80824;SHT35;70538;59.122;37.876;2023-08-30T02:37:42;14.22;79.36
80824;SHT35;70538;59.122;37.876;2023-08-30T02:40:11;14.17;79.51
80824;SHT35;70538;59.122;37.876;2023-08-30T02:42:39;14.15;79.67
80824;SHT35;70538;59.122;37.876;2023-08-30T02:45:07;14.13;79.68
80824;SHT35;70538;59.122;37.876;2023-08-30T02:47:34;14.16;79.60
80824;SHT35;70538;59.122;37.876;2023-08-30T02:50:03;14.23;79.43
80824;SHT35;70538;59.122;37.876;2023-08-30T02:52:31;14.30;79.23
80824;SHT35;70538;59.122;37.876;2023-08-30T02:54:58;14.38;79.19
80824;SHT35;70538;59.122;37.876;2023-08-30T02:57:26;14.47;79.05
80824;SHT35;70538;59.122;37.876;2023-08-30T02:59:54;14.59;78.89
80824;SHT35;70538;59.122;37.876;2023-08-30T03:02:21;14.63;78.94
80824;SHT35;70538;59.122;37.876;2023-08-30T03:04:49;14.74;78.74
80824;SHT35;70538;59.122;37.876;2023-08-30T03:07:17;14.81;78.53
80824;SHT35;70538;59.122;37.876;2023-08-30T03:09:45;14.87;78.44
80824;SHT35;70538;59.122;37.876;2023-08-30T03:12:12;14.88;78.39
80824;SHT35;70538;59.122;37.876;2023-08-30T03:14:40;14.95;78.28
80824;SHT35;70538;59.122;37.876;2023-08-30T03:17:08;14.99;78.15
80824;SHT35;70538;59.122;37.876;2023-08-30T03:19:36;15.02;78.00
80824;SHT35;70538;59.122;37.876;2023-08-30T03:22:04;15.06;77.89
80824;SHT35;70538;59.122;37.876;2023-08-30T03:24:32;15.12;77.76
80824;SHT35;70538;59.122;37.876;2023-08-30T03:27:00;15.13;77.75
80824;SHT35;70538;59.122;37.876;2023-08-30T03:29:29;15.16;77.65
80824;SHT35;70538;59.122;37.876;2023-08-30T03:31:57;15.15;77.68
80824;SHT35;70538;59.122;37.876;2023-08-30T03:34:25;15.06;78.02
80824;SHT35;70538;59.122;37.876;2023-08-30T03:36:54;15.09;78.19
80824;SHT35;70538;59.122;37.876;2023-08-30T03:39:22;15.08;78.26
80824;SHT35;70538;59.122;37.876;2023-08-30T03:41:51;15.16;78.28
80824;SHT35;70538;59.122;37.876;2023-08-30T03:44:19;15.20;78.16
80824;SHT35;70538;59.122;37.876;2023-08-30T03:46:47;15.23;77.89
80824;SHT35;70538;59.122;37.876;2023-08-30T03:49:15;15.18;77.88
80824;SHT35;70538;59.122;37.876;2023-08-30T03:51:43;15.12;78.05
80824;SHT35;70538;59.122;37.876;2023-08-30T03:54:11;15.03;78.35
80824;SHT35;70538;59.122;37.876;2023-08-30T03:56:45;14.96;78.49
80824;SHT35;70538;59.122;37.876;2023-08-30T03:59:13;14.93;78.78
80824;SHT35;70538;59.122;37.876;2023-08-30T04:01:41;14.91;79.01
80824;SHT35;70538;59.122;37.876;2023-08-30T04:04:09;14.91;79.12
80824;SHT35;70538;59.122;37.876;2023-08-30T04:06:37;14.95;79.26
80824;SHT35;70538;59.122;37.876;2023-08-30T04:09:07;15.02;78.91
80824;SHT35;70538;59.122;37.876;2023-08-30T04:11:38;15.00;78.71
80824;SHT35;70538;59.122;37.876;2023-08-30T04:14:06;15.00;78.75
80824;SHT35;70538;59.122;37.876;2023-08-30T04:16:34;14.96;78.93
80824;SHT35;70538;59.122;37.876;2023-08-30T04:19:02;14.92;78.95
80824;SHT35;70538;59.122;37.876;2023-08-30T04:21:30;14.89;79.09
80824;SHT35;70538;59.122;37.876;2023-08-30T04:23:58;14.91;79.11
80824;SHT35;70538;59.122;37.876;2023-08-30T04:26:26;14.92;79.22
80824;SHT35;70538;59.122;37.876;2023-08-30T04:28:55;14.98;79.16
80824;SHT35;70538;59.122;37.876;2023-08-30T04:31:23;15.09;78.99
80824;SHT35;70538;59.122;37.876;2023-08-30T04:33:53;15.13;78.65
80824;SHT35;70538;59.122;37.876;2023-08-30T04:36:23;15.16;78.78
80824;SHT35;70538;59.122;37.876;2023-08-30T04:38:50;15.15;78.90
80824;SHT35;70538;59.122;37.876;2023-08-30T04:41:29;15.16;79.01
80824;SHT35;70538;59.122;37.876;2023-08-30T04:43:57;15.23;79.06
80824;SHT35;70538;59.122;37.876;2023-08-30T04:46:26;15.33;78.96
80824;SHT35;70538;59.122;37.876;2023-08-30T04:48:54;15.40;78.71
80824;SHT35;70538;59.122;37.876;2023-08-30T04:51:22;15.49;78.51
80824;SHT35;70538;59.122;37.876;2023-08-30T04:53:50;15.55;78.43
80824;SHT35;70538;59.122;37.876;2023-08-30T04:56:18;15.64;78.27
80824;SHT35;70538;59.122;37.876;2023-08-30T04:58:47;15.73;78.18
80824;SHT35;70538;59.122;37.876;2023-08-30T05:01:15;15.81;77.91
80824;SHT35;70538;59.122;37.876;2023-08-30T05:03:44;15.91;77.79
80824;SHT35;70538;59.122;37.876;2023-08-30T05:06:13;15.95;77.70
80824;SHT35;70538;59.122;37.876;2023-08-30T05:08:44;16.05;77.52
80824;SHT35;70538;59.122;37.876;2023-08-30T05:11:12;16.10;77.42
80824;SHT35;70538;59.122;37.876;2023-08-30T05:13:40;16.20;77.38
80824;SHT35;70538;59.122;37.876;2023-08-30T05:16:08;16.27;77.18
80824;SHT35;70538;59.122;37.876;2023-08-30T05:18:36;16.42;76.92
80824;SHT35;70538;59.122;37.876;2023-08-30T05:21:04;16.50;76.82
80824;SHT35;70538;59.122;37.876;2023-08-30T05:23:32;16.59;76.73
80824;SHT35;70538;59.122;37.876;2023-08-30T05:26:01;16.65;76.39
80824;SHT35;70538;59.122;37.876;2023-08-30T05:28:29;16.64;76.35
80824;SHT35;70538;59.122;37.876;2023-08-30T05:31:01;16.70;76.37
80824;SHT35;70538;59.122;37.876;2023-08-30T05:33:32;16.78;76.34
80824;SHT35;70538;59.122;37.876;2023-08-30T05:36:00;16.87;76.10
80824;SHT35;70538;59.122;37.876;2023-08-30T05:38:28;16.88;76.19
80824;SHT35;70538;59.122;37.876;2023-08-30T05:40:57;17.02;76.02
80824;SHT35;70538;59.122;37.876;2023-08-30T05:43:25;17.22;75.70
80824;SHT35;70538;59.122;37.876;2023-08-30T05:45:53;17.39;75.29
80824;SHT35;70538;59.122;37.876;2023-08-30T05:48:22;17.43;74.93
80824;SHT35;70538;59.122;37.876;2023-08-30T05:50:49;17.42;74.90
80824;SHT35;70538;59.122;37.876;2023-08-30T05:53:17;17.46;74.86
80824;SHT35;70538;59.122;37.876;2023-08-30T05:55:45;17.62;74.43
80824;SHT35;70538;59.122;37.876;2023-08-30T05:58:13;17.60;74.50
80824;SHT35;70538;59.122;37.876;2023-08-30T06:00:42;17.69;74.52
80824;SHT35;70538;59.122;37.876;2023-08-30T06:03:10;17.77;74.20
80824;SHT35;70538;59.122;37.876;2023-08-30T06:05:38;17.80;74.15
80824;SHT35;70538;59.122;37.876;2023-08-30T06:08:06;17.84;74.01
80824;SHT35;70538;59.122;37.876;2023-08-30T06:10:38;17.80;74.24
80824;SHT35;70538;59.122;37.876;2023-08-30T06:13:06;17.84;74.35
80824;SHT35;70538;59.122;37.876;2023-08-30T06:15:37;17.91;74.19
80824;SHT35;70538;59.122;37.876;2023-08-30T06:18:07;17.92;73.99
80824;SHT35;70538;59.122;37.876;2023-08-30T06:20:40;17.85;74.14
80824;SHT35;70538;59.122;37.876;2023-08-30T06:23:14;17.85;74.33
80824;SHT35;70538;59.122;37.876;2023-08-30T06:25:42;17.98;74.31
80824;SHT35;70538;59.122;37.876;2023-08-30T06:28:13;18.05;73.93
80824;SHT35;70538;59.122;37.876;2023-08-30T06:30:41;18.08;73.92
80824;SHT35;70538;59.122;37.876;2023-08-30T06:33:09;18.12;73.93
80824;SHT35;70538;59.122;37.876;2023-08-30T06:35:38;18.28;73.59
80824;SHT35;70538;59.122;37.876;2023-08-30T06:38:06;18.33;73.28
80824;SHT35;70538;59.122;37.876;2023-08-30T06:40:36;18.30;73.28
80824;SHT35;70538;59.122;37.876;2023-08-30T06:43:05;18.29;73.29
80824;SHT35;70538;59.122;37.876;2023-08-30T06:45:33;18.29;73.38
80824;SHT35;70538;59.122;37.876;2023-08-30T06:48:01;18.39;73.19
80824;SHT35;70538;59.122;37.876;2023-08-30T06:50:29;18.52;72.62
80824;SHT35;70538;59.122;37.876;2023-08-30T06:52:58;18.67;72.40
80824;SHT35;70538;59.122;37.876;2023-08-30T06:55:26;18.88;71.97
80824;SHT35;70538;59.122;37.876;2023-08-30T06:57:55;19.04;71.57
80824;SHT35;70538;59.122;37.876;2023-08-30T07:00:23;19.12;71.30
80824;SHT35;70538;59.122;37.876;2023-08-30T07:02:51;19.15;71.22
80824;SHT35;70538;59.122;37.876;2023-08-30T07:05:19;19.21;71.16
80824;SHT35;70538;59.122;37.876;2023-08-30T07:07:47;19.35;71.04
80824;SHT35;70538;59.122;37.876;2023-08-30T07:10:15;19.56;70.49
80824;SHT35;70538;59.122;37.876;2023-08-30T07:12:43;19.67;69.87
80824;SHT35;70538;59.122;37.876;2023-08-30T07:15:15;19.65;69.76
80824;SHT35;70538;59.122;37.876;2023-08-30T07:17:45;19.67;69.80
80824;SHT35;70538;59.122;37.876;2023-08-30T07:20:34;19.80;69.39
80824;SHT35;70538;59.122;37.876;2023-08-30T07:23:05;19.90;69.13
80824;SHT35;70538;59.122;37.876;2023-08-30T07:25:37;19.94;69.03
80824;SHT35;70538;59.122;37.876;2023-08-30T07:28:06;20.07;68.48
80824;SHT35;70538;59.122;37.876;2023-08-30T07:30:37;20.22;68.00
80824;SHT35;70538;59.122;37.876;2023-08-30T07:33:07;20.40;67.57
80824;SHT35;70538;59.122;37.876;2023-08-30T07:35:43;20.67;66.90
80824;SHT35;70538;59.122;37.876;2023-08-30T07:38:12;20.91;66.34
80824;SHT35;70538;59.122;37.876;2023-08-30T07:40:41;21.18;65.50
80824;SHT35;70538;59.122;37.876;2023-08-30T07:43:10;21.32;64.73
80824;SHT35;70538;59.122;37.876;2023-08-30T07:45:38;21.34;64.67
80824;SHT35;70538;59.122;37.876;2023-08-30T07:48:06;21.37;64.54
80824;SHT35;70538;59.122;37.876;2023-08-30T07:50:36;21.42;64.39
80824;SHT35;70538;59.122;37.876;2023-08-30T07:53:04;21.41;64.29
80824;SHT35;70538;59.122;37.876;2023-08-30T07:55:31;21.39;64.24
80824;SHT35;70538;59.122;37.876;2023-08-30T07:57:59;21.32;64.29
80824;SHT35;70538;59.122;37.876;2023-08-30T08:00:28;21.24;64.60
80824;SHT35;70538;59.122;37.876;2023-08-30T08:02:55;21.22;64.57
80824;SHT35;70538;59.122;37.876;2023-08-30T08:05:23;21.30;64.40
80824;SHT35;70538;59.122;37.876;2023-08-30T08:07:52;21.45;63.73
80824;SHT35;70538;59.122;37.876;2023-08-30T08:10:21;21.58;63.38
80824;SHT35;70538;59.122;37.876;2023-08-30T08:12:49;21.66;62.99
80824;SHT35;70538;59.122;37.876;2023-08-30T08:15:17;21.77;62.70
80824;SHT35;70538;59.122;37.876;2023-08-30T08:17:45;21.79;62.59
80824;SHT35;70538;59.122;37.876;2023-08-30T08:20:13;21.73;62.73
80824;SHT35;70538;59.122;37.876;2023-08-30T08:22:41;21.72;63.04
80824;SHT35;70538;59.122;37.876;2023-08-30T08:25:09;21.90;62.77
80824;SHT35;70538;59.122;37.876;2023-08-30T08:27:37;22.14;62.07
80824;SHT35;70538;59.122;37.876;2023-08-30T08:30:06;22.24;61.74
80824;SHT35;70538;59.122;37.876;2023-08-30T08:32:34;22.34;61.19
80824;SHT35;70538;59.122;37.876;2023-08-30T08:35:02;22.55;60.79
80824;SHT35;70538;59.122;37.876;2023-08-30T08:37:32;22.70;60.32
80824;SHT35;70538;59.122;37.876;2023-08-30T08:40:01;22.85;59.89
80824;SHT35;70538;59.122;37.876;2023-08-30T08:42:36;22.95;58.85
80824;SHT35;70538;59.122;37.876;2023-08-30T08:45:06;22.82;58.89
80824;SHT35;70538;59.122;37.876;2023-08-30T08:47:37;22.77;59.23
80824;SHT35;70538;59.122;37.876;2023-08-30T08:50:08;22.85;58.94
80824;SHT35;70538;59.122;37.876;2023-08-30T08:52:36;22.87;58.66
80824;SHT35;70538;59.122;37.876;2023-08-30T08:55:28;22.95;57.95
80824;SHT35;70538;59.122;37.876;2023-08-30T08:57:58;22.92;57.56
80824;SHT35;70538;59.122;37.876;2023-08-30T09:00:30;22.97;57.30
80824;SHT35;70538;59.122;37.876;2023-08-30T09:02:58;23.08;56.75
80824;SHT35;70538;59.122;37.876;2023-08-30T09:05:27;23.20;55.77
80824;SHT35;70538;59.122;37.876;2023-08-30T09:07:56;23.18;54.73
80824;SHT35;70538;59.122;37.876;2023-08-30T09:10:24;23.18;54.83
80824;SHT35;70538;59.122;37.876;2023-08-30T09:12:52;23.30;55.13
80824;SHT35;70538;59.122;37.876;2023-08-30T09:15:20;23.50;54.20
80824;SHT35;70538;59.122;37.876;2023-08-30T09:17:49;23.65;54.09
80824;SHT35;70538;59.122;37.876;2023-08-30T09:20:17;23.93;53.71
80824;SHT35;70538;59.122;37.876;2023-08-30T09:22:46;24.21;53.21
80824;SHT35;70538;59.122;37.876;2023-08-30T09:25:24;24.45;51.54
80824;SHT35;70538;59.122;37.876;2023-08-30T09:27:59;24.48;51.29
80824;SHT35;70538;59.122;37.876;2023-08-30T09:30:27;24.51;51.26
80824;SHT35;70538;59.122;37.876;2023-08-30T09:33:01;24.67;51.37
80824;SHT35;70538;59.122;37.876;2023-08-30T09:35:31;24.93;50.93
80824;SHT35;70538;59.122;37.876;2023-08-30T09:37:59;25.17;50.83
80824;SHT35;70538;59.122;37.876;2023-08-30T09:40:27;25.51;49.53
80824;SHT35;70538;59.122;37.876;2023-08-30T09:42:58;25.77;48.92
80824;SHT35;70538;59.122;37.876;2023-08-30T09:45:40;25.93;48.90
80824;SHT35;70538;59.122;37.876;2023-08-30T09:48:10;25.98;47.80
80824;SHT35;70538;59.122;37.876;2023-08-30T09:50:39;26.00;47.93
80824;SHT35;70538;59.122;37.876;2023-08-30T09:53:09;26.12;47.76
80824;SHT35;70538;59.122;37.876;2023-08-30T09:55:38;26.32;47.66
80824;SHT35;70538;59.122;37.876;2023-08-30T09:58:07;26.58;47.18
80824;SHT35;70538;59.122;37.876;2023-08-30T10:00:36;26.87;46.82
80824;SHT35;70538;59.122;37.876;2023-08-30T10:03:05;27.08;46.23
80824;SHT35;70538;59.122;37.876;2023-08-30T10:05:54;27.32;45.32
80824;SHT35;70538;59.122;37.876;2023-08-30T10:08:23;27.40;44.53
80824;SHT35;70538;59.122;37.876;2023-08-30T10:10:58;27.58;44.19
80824;SHT35;70538;59.122;37.876;2023-08-30T10:13:26;27.99;42.92
80824;SHT35;70538;59.122;37.876;2023-08-30T10:16:00;28.25;41.53
80824;SHT35;70538;59.122;37.876;2023-08-30T10:18:32;28.27;41.23
80824;SHT35;70538;59.122;37.876;2023-08-30T10:21:06;28.44;41.11
80824;SHT35;70538;59.122;37.876;2023-08-30T10:23:36;28.95;41.05
80824;SHT35;70538;59.122;37.876;2023-08-30T10:26:06;29.50;40.38
80824;SHT35;70538;59.122;37.876;2023-08-30T10:28:35;30.08;39.38
80824;SHT35;70538;59.122;37.876;2023-08-30T10:31:04;30.26;38.73
80824;SHT35;70538;59.122;37.876;2023-08-30T10:33:32;30.33;38.39
80824;SHT35;70538;59.122;37.876;2023-08-30T10:36:06;30.43;37.91
80824;SHT35;70538;59.122;37.876;2023-08-30T10:38:34;30.72;37.30
80824;SHT35;70538;59.122;37.876;2023-08-30T10:41:06;30.90;37.46
80824;SHT35;70538;59.122;37.876;2023-08-30T10:43:36;31.00;36.98
80824;SHT35;70538;59.122;37.876;2023-08-30T10:46:05;31.15;36.85
80824;SHT35;70538;59.122;37.876;2023-08-30T10:48:40;31.29;35.95
80824;SHT35;70538;59.122;37.876;2023-08-30T10:51:42;31.14;35.68
80824;SHT35;70538;59.122;37.876;2023-08-30T10:54:15;31.25;35.47
80824;SHT35;70538;59.122;37.876;2023-08-30T10:56:57;31.24;35.61
80824;SHT35;70538;59.122;37.876;2023-08-30T10:59:28;31.43;34.54
80824;SHT35;70538;59.122;37.876;2023-08-30T11:02:02;31.66;34.16
80824;SHT35;70538;59.122;37.876;2023-08-30T11:04:31;31.98;33.65
80824;SHT35;70538;59.122;37.876;2023-08-30T11:06:59;32.37;32.77
80824;SHT35;70538;59.122;37.876;2023-08-30T11:09:27;32.56;32.37
80824;SHT35;70538;59.122;37.876;2023-08-30T11:11:55;32.61;31.88
80824;SHT35;70538;59.122;37.876;2023-08-30T11:14:24;32.65;32.09
80824;SHT35;70538;59.122;37.876;2023-08-30T11:16:51;32.71;31.02
80824;SHT35;70538;59.122;37.876;2023-08-30T11:19:19;32.93;31.24
80824;SHT35;70538;59.122;37.876;2023-08-30T11:21:49;33.07;31.08
80824;SHT35;70538;59.122;37.876;2023-08-30T11:24:17;33.34;31.22
80824;SHT35;70538;59.122;37.876;2023-08-30T11:26:45;33.28;30.98
80824;SHT35;70538;59.122;37.876;2023-08-30T11:29:16;33.03;31.03
80824;SHT35;70538;59.122;37.876;2023-08-30T11:31:44;33.18;31.00
80824;SHT35;70538;59.122;37.876;2023-08-30T11:34:14;33.34;30.53
80824;SHT35;70538;59.122;37.876;2023-08-30T11:36:42;33.24;30.47
80824;SHT35;70538;59.122;37.876;2023-08-30T11:39:10;33.33;30.31
80824;SHT35;70538;59.122;37.876;2023-08-30T11:41:38;33.55;29.66
80824;SHT35;70538;59.122;37.876;2023-08-30T11:44:07;33.45;29.43
80824;SHT35;70538;59.122;37.876;2023-08-30T11:46:35;33.41;29.34
80824;SHT35;70538;59.122;37.876;2023-08-30T11:49:03;33.51;29.76
80824;SHT35;70538;59.122;37.876;2023-08-30T11:51:31;33.51;29.64
80824;SHT35;70538;59.122;37.876;2023-08-30T11:54:00;33.68;29.30
80824;SHT35;70538;59.122;37.876;2023-08-30T11:56:30;33.81;29.05
80824;SHT35;70538;59.122;37.876;2023-08-30T11:58:58;33.88;29.20
80824;SHT35;70538;59.122;37.876;2023-08-30T12:01:28;34.03;28.45
80824;SHT35;70538;59.122;37.876;2023-08-30T12:03:55;34.28;28.30
80824;SHT35;70538;59.122;37.876;2023-08-30T12:06:25;34.57;28.52
80824;SHT35;70538;59.122;37.876;2023-08-30T12:08:57;34.94;27.91
80824;SHT35;70538;59.122;37.876;2023-08-30T12:11:25;35.15;27.38
80824;SHT35;70538;59.122;37.876;2023-08-30T12:14:01;35.03;26.53
80824;SHT35;70538;59.122;37.876;2023-08-30T12:16:29;34.74;27.00
80824;SHT35;70538;59.122;37.876;2023-08-30T12:19:07;34.61;27.73
80824;SHT35;70538;59.122;37.876;2023-08-30T12:21:41;34.68;27.66
80824;SHT35;70538;59.122;37.876;2023-08-30T12:24:10;34.71;27.89
80824;SHT35;70538;59.122;37.876;2023-08-30T12:26:38;34.82;27.92
80824;SHT35;70538;59.122;37.876;2023-08-30T12:29:06;34.77;27.41
80824;SHT35;70538;59.122;37.876;2023-08-30T12:31:34;34.82;27.34
80824;SHT35;70538;59.122;37.876;2023-08-30T12:34:02;34.95;27.25
80824;SHT35;70538;59.122;37.876;2023-08-30T12:36:31;34.98;27.41
80824;SHT35;70538;59.122;37.876;2023-08-30T12:38:59;35.05;27.51
80824;SHT35;70538;59.122;37.876;2023-08-30T12:41:27;34.94;26.89
80824;SHT35;70538;59.122;37.876;2023-08-30T12:43:55;34.85;27.18
80824;SHT35;70538;59.122;37.876;2023-08-30T12:46:24;34.74;27.14
80824;SHT35;70538;59.122;37.876;2023-08-30T12:48:52;34.80;27.41
80824;SHT35;70538;59.122;37.876;2023-08-30T12:51:20;34.84;27.34
80824;SHT35;70538;59.122;37.876;2023-08-30T12:53:48;34.75;27.71
80824;SHT35;70538;59.122;37.876;2023-08-30T12:56:16;34.70;27.29
80824;SHT35;70538;59.122;37.876;2023-08-30T12:58:44;34.72;26.80
80824;SHT35;70538;59.122;37.876;2023-08-30T13:01:12;34.89;26.68
80824;SHT35;70538;59.122;37.876;2023-08-30T13:03:40;35.13;26.12
80824;SHT35;70538;59.122;37.876;2023-08-30T13:06:09;35.30;25.55
80824;SHT35;70538;59.122;37.876;2023-08-30T13:08:37;35.20;25.89
80824;SHT35;70538;59.122;37.876;2023-08-30T13:11:05;35.26;25.92
80824;SHT35;70538;59.122;37.876;2023-08-30T13:13:33;35.32;25.95
80824;SHT35;70538;59.122;37.876;2023-08-30T13:16:01;35.19;26.04
80824;SHT35;70538;59.122;37.876;2023-08-30T13:18:29;35.09;26.22
80824;SHT35;70538;59.122;37.876;2023-08-30T13:20:58;35.15;26.31
80824;SHT35;70538;59.122;37.876;2023-08-30T13:23:25;35.20;26.59
80824;SHT35;70538;59.122;37.876;2023-08-30T13:25:54;35.60;26.28
80824;SHT35;70538;59.122;37.876;2023-08-30T13:28:22;36.05;25.85
80824;SHT35;70538;59.122;37.876;2023-08-30T13:30:50;36.04;26.01
80824;SHT35;70538;59.122;37.876;2023-08-30T13:33:19;35.92;26.07
80824;SHT35;70538;59.122;37.876;2023-08-30T13:35:50;35.82;25.69
80824;SHT35;70538;59.122;37.876;2023-08-30T13:38:22;35.57;26.15
80824;SHT35;70538;59.122;37.876;2023-08-30T13:40:58;35.35;25.70
80824;SHT35;70538;59.122;37.876;2023-08-30T13:43:26;34.82;26.33
80824;SHT35;70538;59.122;37.876;2023-08-30T13:45:58;34.40;26.69
80824;SHT35;70538;59.122;37.876;2023-08-30T13:48:27;34.20;26.49
80824;SHT35;70538;59.122;37.876;2023-08-30T13:50:56;33.73;26.37
80824;SHT35;70538;59.122;37.876;2023-08-30T13:53:28;33.18;26.71
80824;SHT35;70538;59.122;37.876;2023-08-30T13:55:56;32.79;26.88
80824;SHT35;70538;59.122;37.876;2023-08-30T13:58:25;32.46;27.39
80824;SHT35;70538;59.122;37.876;2023-08-30T14:00:53;31.89;27.84
80824;SHT35;70538;59.122;37.876;2023-08-30T14:03:21;31.19;28.73
80824;SHT35;70538;59.122;37.876;2023-08-30T14:05:49;30.28;29.93
80824;SHT35;70538;59.122;37.876;2023-08-30T14:08:17;29.50;30.92
80824;SHT35;70538;59.122;37.876;2023-08-30T14:10:46;28.68;32.43
80824;SHT35;70538;59.122;37.876;2023-08-30T14:13:14;27.95;33.81
80824;SHT35;70538;59.122;37.876;2023-08-30T14:15:42;27.49;34.74
80824;SHT35;70538;59.122;37.876;2023-08-30T14:18:10;27.02;35.47
80824;SHT35;70538;59.122;37.876;2023-08-30T14:20:41;26.53;36.69
80824;SHT35;70538;59.122;37.876;2023-08-30T14:23:10;26.09;37.94
80824;SHT35;70538;59.122;37.876;2023-08-30T14:25:39;25.74;39.02
80824;SHT35;70538;59.122;37.876;2023-08-30T14:28:07;25.41;40.54
80824;SHT35;70538;59.122;37.876;2023-08-30T14:30:36;25.06;42.25
80824;SHT35;70538;59.122;37.876;2023-08-30T14:33:06;24.68;43.82
80824;SHT35;70538;59.122;37.876;2023-08-30T14:35:34;24.41;44.74
80824;SHT35;70538;59.122;37.876;2023-08-30T14:38:02;24.12;45.83
80824;SHT35;70538;59.122;37.876;2023-08-30T14:40:30;23.85;46.48
80824;SHT35;70538;59.122;37.876;2023-08-30T14:42:58;23.58;47.03
80824;SHT35;70538;59.122;37.876;2023-08-30T14:45:28;23.34;47.64
80824;SHT35;70538;59.122;37.876;2023-08-30T14:48:00;23.17;48.22
80824;SHT35;70538;59.122;37.876;2023-08-30T14:50:32;23.08;48.46
80824;SHT35;70538;59.122;37.876;2023-08-30T14:53:00;23.14;48.74
80824;SHT35;70538;59.122;37.876;2023-08-30T14:55:30;23.17;49.04
80824;SHT35;70538;59.122;37.876;2023-08-30T14:57:58;23.10;49.09
80824;SHT35;70538;59.122;37.876;2023-08-30T15:00:26;23.04;49.69
80824;SHT35;70538;59.122;37.876;2023-08-30T15:02:54;23.00;50.07
80824;SHT35;70538;59.122;37.876;2023-08-30T15:05:22;23.02;50.31
80824;SHT35;70538;59.122;37.876;2023-08-30T15:07:50;23.08;50.33
80824;SHT35;70538;59.122;37.876;2023-08-30T15:10:18;23.14;50.26
80824;SHT35;70538;59.122;37.876;2023-08-30T15:12:46;23.23;50.54
80824;SHT35;70538;59.122;37.876;2023-08-30T15:15:16;23.31;50.61
80824;SHT35;70538;59.122;37.876;2023-08-30T15:17:46;23.38;50.77
80824;SHT35;70538;59.122;37.876;2023-08-30T15:20:16;23.52;50.79
80824;SHT35;70538;59.122;37.876;2023-08-30T15:22:44;23.73;50.56
80824;SHT35;70538;59.122;37.876;2023-08-30T15:25:12;24.02;50.25
80824;SHT35;70538;59.122;37.876;2023-08-30T15:27:40;24.40;49.76
80824;SHT35;70538;59.122;37.876;2023-08-30T15:30:08;24.72;49.16
80824;SHT35;70538;59.122;37.876;2023-08-30T15:32:36;24.85;48.63
80824;SHT35;70538;59.122;37.876;2023-08-30T15:35:04;24.82;48.76
80824;SHT35;70538;59.122;37.876;2023-08-30T15:37:33;24.76;48.66